Aviation Digital Data Service (ADDS)

Output produced by METARs form (2104 UTC 31 January 2023)
found at http://www.aviationweather.gov/metar/data/
 
KAND 312056Z AUTO 22008KT 10SM FEW039 OVC048 17/13 A3008 RMK AO2 SLP183 T01720133 58007
KAND 311825Z 3118/0118 22007KT P6SM VCSH OVC008 
     TEMPO 3119/3123 SCT008 BKN015 
     FM010700 25004KT 5SM -RA BR OVC006 
     FM011100 25006KT 4SM BR OVC008 
     FM011500 26006KT P6SM OVC009